createdAt,value
2018-08-22T00:02:09.346Z,58.54
2018-08-22T00:05:14.927Z,58.41
2018-08-22T00:08:53.326Z,58.54
2018-08-22T00:11:58.694Z,57.94
2018-08-22T00:15:04.739Z,57.62
2018-08-22T00:18:10.249Z,58.06
2018-08-22T00:21:15.633Z,58.69
2018-08-22T00:24:20.978Z,58.75
2018-08-22T00:27:26.321Z,58.19
2018-08-22T00:30:31.708Z,58.35
2018-08-22T00:33:37.222Z,57.78
2018-08-22T00:36:42.609Z,57.59
2018-08-22T00:39:47.968Z,57.45
2018-08-22T00:42:53.291Z,58.29
2018-08-22T00:45:58.639Z,57.85
2018-08-22T00:49:03.982Z,57.46
2018-08-22T00:52:09.330Z,57.21
2018-08-22T00:55:14.841Z,57.00
2018-08-22T00:58:20.178Z,57.26
2018-08-22T01:01:25.578Z,57.21
2018-08-22T01:04:30.943Z,57.08
2018-08-22T01:07:36.289Z,57.40
2018-08-22T01:10:41.642Z,57.72
2018-08-22T01:13:46.977Z,57.18
2018-08-22T01:16:52.329Z,57.76
2018-08-22T01:19:57.818Z,57.51
2018-08-22T01:23:03.141Z,57.30
2018-08-22T01:26:08.492Z,57.91
2018-08-22T01:29:14.049Z,57.46
2018-08-22T01:32:19.477Z,56.78
2018-08-22T01:35:24.821Z,56.83
2018-08-22T01:38:30.505Z,57.74
2018-08-22T01:41:36.130Z,58.32
2018-08-22T01:44:41.459Z,57.92
2018-08-22T01:47:46.814Z,57.57
2018-08-22T01:50:52.158Z,57.67
2018-08-22T01:53:57.481Z,57.66
2018-08-22T01:57:02.953Z,57.47
2018-08-22T02:00:09.238Z,58.29
2018-08-22T02:03:14.614Z,58.17
2018-08-22T02:06:19.965Z,58.75
2018-08-22T02:09:25.301Z,58.42
2018-08-22T02:12:30.695Z,58.55
2018-08-22T02:15:36.053Z,58.18
2018-08-22T02:18:41.389Z,59.00
2018-08-22T02:21:46.782Z,58.96
2018-08-22T02:24:52.134Z,59.53
2018-08-22T02:27:57.495Z,58.37
2018-08-22T02:31:02.871Z,58.25
2018-08-22T02:34:08.214Z,59.63
2018-08-22T02:37:13.581Z,58.92
2018-08-22T02:40:18.932Z,58.47
2018-08-22T02:43:24.617Z,58.61
2018-08-22T02:46:29.999Z,59.28
2018-08-22T02:49:35.354Z,58.47
2018-08-22T02:52:40.751Z,58.29
2018-08-22T02:55:46.085Z,58.73
2018-08-22T02:58:51.555Z,59.15
2018-08-22T03:01:56.918Z,58.93
2018-08-22T03:05:02.262Z,59.20
2018-08-22T03:08:07.629Z,58.66
2018-08-22T03:11:13.018Z,59.34
2018-08-22T03:14:18.366Z,58.70
2018-08-22T03:17:23.740Z,59.26
2018-08-22T03:20:29.094Z,59.20
2018-08-22T03:23:34.451Z,59.34
2018-08-22T03:26:39.813Z,59.09
2018-08-22T03:29:45.155Z,59.70
2018-08-22T03:32:50.514Z,59.72
2018-08-22T03:35:55.847Z,59.73
2018-08-22T03:39:01.206Z,59.45
2018-08-22T03:42:06.550Z,59.92
2018-08-22T03:45:11.938Z,59.45
2018-08-22T03:48:17.610Z,60.28
2018-08-22T03:51:22.982Z,60.72
2018-08-22T03:54:28.361Z,60.17
2018-08-22T03:57:33.757Z,60.16
2018-08-22T04:00:39.103Z,59.50
2018-08-22T04:03:44.478Z,60.06
2018-08-22T04:06:49.831Z,60.18
2018-08-22T04:09:55.170Z,60.70
2018-08-22T04:13:00.522Z,60.04
2018-08-22T04:16:05.873Z,60.74
2018-08-22T04:19:11.242Z,59.99
2018-08-22T04:22:16.682Z,60.09
2018-08-22T04:25:22.056Z,60.67
2018-08-22T04:28:27.411Z,60.55
2018-08-22T04:31:32.834Z,60.59
2018-08-22T04:34:38.186Z,60.47
2018-08-22T04:37:43.623Z,61.09
2018-08-22T04:40:49.299Z,60.36
2018-08-22T04:43:54.653Z,60.99
2018-08-22T04:46:59.981Z,61.26
2018-08-22T04:50:05.723Z,59.96
2018-08-22T04:53:11.082Z,60.51
2018-08-22T04:56:16.433Z,60.71
2018-08-22T04:59:21.809Z,60.63
2018-08-22T05:02:27.158Z,60.76
2018-08-22T05:05:32.486Z,60.21
2018-08-22T05:08:37.838Z,60.53
2018-08-22T05:11:43.163Z,60.45
2018-08-22T05:14:48.898Z,60.33
2018-08-22T05:17:54.262Z,59.94
2018-08-22T05:20:59.622Z,60.77
2018-08-22T05:24:04.978Z,60.27
2018-08-22T05:27:10.305Z,59.81
2018-08-22T05:30:15.752Z,59.58
2018-08-22T05:33:21.249Z,58.65
2018-08-22T05:36:26.590Z,59.49
2018-08-22T05:39:31.958Z,58.60
2018-08-22T05:42:37.452Z,58.52
2018-08-22T05:45:42.806Z,56.44
2018-08-22T05:48:48.767Z,54.70
2018-08-22T05:51:54.134Z,53.77
2018-08-22T05:54:59.505Z,52.80
2018-08-22T05:58:04.873Z,52.42
2018-08-22T06:01:10.221Z,52.15
2018-08-22T06:04:15.597Z,53.73
2018-08-22T06:07:20.946Z,53.22
2018-08-22T06:10:26.318Z,53.16
2018-08-22T06:13:31.683Z,53.58
2018-08-22T06:16:37.056Z,53.91
2018-08-22T06:19:42.467Z,53.51
2018-08-22T06:22:47.830Z,53.16
2018-08-22T06:25:53.195Z,53.26
2018-08-22T06:28:58.930Z,52.94
2018-08-22T06:32:04.286Z,54.25
2018-08-22T06:35:09.963Z,54.32
2018-08-22T06:38:15.722Z,54.30
2018-08-22T06:41:21.186Z,54.06
2018-08-22T06:44:26.562Z,54.59
2018-08-22T06:47:31.914Z,54.74
2018-08-22T06:50:37.353Z,54.14
2018-08-22T06:53:42.868Z,54.43
2018-08-22T06:56:48.217Z,54.87
2018-08-22T06:59:54.096Z,54.18
2018-08-22T07:03:11.038Z,54.41
2018-08-22T07:06:16.651Z,53.20
2018-08-22T07:09:22.046Z,54.20
2018-08-22T07:12:27.413Z,52.69
2018-08-22T07:15:32.838Z,53.97
2018-08-22T07:18:38.224Z,52.63
2018-08-22T07:21:43.651Z,53.58
2018-08-22T07:24:49.020Z,52.64
2018-08-22T07:27:54.425Z,52.02
2018-08-22T07:31:00.392Z,52.56
2018-08-22T07:34:06.243Z,51.78
2018-08-22T07:37:11.581Z,51.06
2018-08-22T07:40:16.961Z,50.47
2018-08-22T07:43:22.546Z,50.75
2018-08-22T07:46:27.899Z,49.00
2018-08-22T07:49:33.256Z,48.37
2018-08-22T07:52:43.974Z,47.53
2018-08-22T07:55:49.325Z,46.24
2018-08-22T07:59:11.375Z,46.38
2018-08-22T08:02:16.711Z,45.50
2018-08-22T08:05:22.182Z,45.22
2018-08-22T08:08:27.524Z,42.68
2018-08-22T08:11:33.210Z,41.80
2018-08-22T08:14:38.758Z,41.98
2018-08-22T08:17:44.113Z,43.08
2018-08-22T08:20:49.529Z,42.83
2018-08-22T08:23:54.966Z,43.51
2018-08-22T08:27:00.338Z,43.28
2018-08-22T08:30:07.405Z,43.74
2018-08-22T08:33:15.206Z,44.36
2018-08-22T08:36:20.698Z,44.77
2018-08-22T08:39:26.113Z,44.66
2018-08-22T08:42:31.498Z,44.77
2018-08-22T08:45:38.314Z,43.72
2018-08-22T08:48:43.665Z,43.78
2018-08-22T08:51:59.687Z,44.87
2018-08-22T08:55:05.418Z,43.68
2018-08-22T08:58:10.766Z,44.03
2018-08-22T09:01:16.134Z,43.90
2018-08-22T09:04:21.979Z,43.66
2018-08-22T09:07:27.345Z,43.41
2018-08-22T09:10:32.721Z,43.18
2018-08-22T09:13:44.550Z,43.55
2018-08-22T09:16:50.072Z,43.22
2018-08-22T09:19:55.501Z,42.55
2018-08-22T09:23:00.998Z,41.93
2018-08-22T09:26:07.138Z,42.68
2018-08-22T09:29:12.825Z,42.44
2018-08-22T09:32:18.202Z,42.12
2018-08-22T09:35:24.224Z,42.64
2018-08-22T09:38:29.774Z,42.63
2018-08-22T09:41:35.217Z,42.15
2018-08-22T09:44:40.566Z,42.24
2018-08-22T09:47:45.936Z,41.88
2018-08-22T09:50:51.356Z,42.62
2018-08-22T09:53:56.994Z,42.25
2018-08-22T09:57:02.362Z,42.30
2018-08-22T10:00:12.492Z,42.63
2018-08-22T10:03:18.070Z,41.41
2018-08-22T10:06:36.585Z,40.88
2018-08-22T10:09:42.009Z,39.14
2018-08-22T10:12:47.377Z,38.44
2018-08-22T10:15:52.750Z,38.17
2018-08-22T10:18:58.666Z,36.79
2018-08-22T10:22:04.293Z,36.80
2018-08-22T10:25:09.641Z,37.16
2018-08-22T10:28:15.162Z,36.29
2018-08-22T10:31:20.518Z,36.54
2018-08-22T10:34:25.974Z,36.49
2018-08-22T10:37:31.345Z,36.74
2018-08-22T10:40:36.701Z,35.76
2018-08-22T10:43:42.121Z,35.28
2018-08-22T10:46:47.466Z,36.31
2018-08-22T10:49:52.842Z,35.81
2018-08-22T10:52:58.219Z,35.32
2018-08-22T10:56:03.706Z,34.48
2018-08-22T10:59:09.091Z,33.82
2018-08-22T11:02:15.030Z,33.59
2018-08-22T11:05:20.398Z,33.69
2018-08-22T11:08:25.774Z,34.12
2018-08-22T11:11:31.491Z,33.42
2018-08-22T11:14:36.929Z,32.70
2018-08-22T11:17:42.301Z,33.28
2018-08-22T11:20:50.386Z,32.38
2018-08-22T11:24:12.706Z,32.60
2018-08-22T11:27:35.142Z,31.01
2018-08-22T11:30:57.743Z,31.75
2018-08-22T11:34:20.167Z,31.56
2018-08-22T11:37:25.755Z,32.07
2018-08-22T11:40:31.134Z,32.08
2018-08-22T11:43:36.853Z,31.66
2018-08-22T11:46:42.315Z,32.49
2018-08-22T11:49:47.845Z,33.15
2018-08-22T11:52:53.193Z,33.00
2018-08-22T11:55:58.624Z,32.36
2018-08-22T11:59:04.181Z,31.54
2018-08-22T12:02:09.537Z,32.86
2018-08-22T12:05:14.922Z,33.19
2018-08-22T12:08:20.312Z,32.19
2018-08-22T12:11:25.675Z,30.23
2018-08-22T12:14:31.190Z,31.49
2018-08-22T12:17:36.549Z,28.57
2018-08-22T12:20:41.946Z,28.96
2018-08-22T12:23:47.319Z,29.27
2018-08-22T12:26:52.678Z,28.87
2018-08-22T12:29:58.049Z,27.78
2018-08-22T12:33:04.071Z,27.43
2018-08-22T12:36:10.427Z,27.15
2018-08-22T12:39:16.002Z,26.74
2018-08-22T12:42:32.824Z,24.28
2018-08-22T12:45:38.195Z,23.64
2018-08-22T12:48:44.265Z,24.37
2018-08-22T12:51:49.700Z,23.07
2018-08-22T12:54:55.223Z,22.10
2018-08-22T12:58:00.931Z,22.47
2018-08-22T13:01:06.967Z,21.68
2018-08-22T13:04:12.348Z,21.08
2018-08-22T13:07:17.696Z,20.20
2018-08-22T13:10:23.282Z,20.90
2018-08-22T13:13:28.629Z,21.10
2018-08-22T13:16:33.994Z,21.47
2018-08-22T13:19:39.453Z,21.29
2018-08-22T13:22:44.826Z,21.77
2018-08-22T13:25:50.410Z,23.26
2018-08-22T13:28:55.785Z,22.76
2018-08-22T13:32:01.162Z,24.53
2018-08-22T13:35:06.869Z,24.01
2018-08-22T13:38:12.226Z,25.62
2018-08-22T13:41:17.602Z,26.04
2018-08-22T13:44:22.964Z,26.45
2018-08-22T13:47:28.335Z,26.42
2018-08-22T13:50:33.858Z,26.80
2018-08-22T13:53:39.230Z,27.69
2018-08-22T13:56:44.711Z,28.54
2018-08-22T13:59:50.098Z,28.13
2018-08-22T14:02:56.026Z,27.93
2018-08-22T14:06:01.795Z,28.20
2018-08-22T14:09:10.355Z,28.50
2018-08-22T14:12:15.985Z,28.81
2018-08-22T14:15:21.391Z,27.92
2018-08-22T14:18:26.746Z,27.19
2018-08-22T14:21:32.150Z,29.04
2018-08-22T14:24:38.003Z,28.09
2018-08-22T14:27:43.390Z,28.10
2018-08-22T14:30:49.014Z,28.68
2018-08-22T14:33:54.374Z,28.81
2018-08-22T14:36:59.861Z,28.75
2018-08-22T14:40:05.251Z,28.27
2018-08-22T14:43:10.630Z,28.86
2018-08-22T14:46:16.004Z,28.47
2018-08-22T14:49:21.657Z,28.47
2018-08-22T14:52:27.038Z,29.42
2018-08-22T14:55:33.022Z,29.65
2018-08-22T14:58:38.608Z,29.90
2018-08-22T15:01:44.073Z,29.02
2018-08-22T15:04:49.422Z,29.17
2018-08-22T15:07:54.801Z,29.81
2018-08-22T15:11:00.158Z,28.96
2018-08-22T15:14:06.485Z,28.76
2018-08-22T15:17:11.858Z,28.39
2018-08-22T15:20:17.369Z,29.15
2018-08-22T15:23:22.950Z,29.28
2018-08-22T15:26:28.856Z,28.76
2018-08-22T15:29:34.394Z,28.89
2018-08-22T15:32:39.779Z,30.41
2018-08-22T15:35:45.262Z,30.72
2018-08-22T15:38:51.194Z,30.09
2018-08-22T15:41:57.015Z,29.86
2018-08-22T15:45:02.826Z,28.83
2018-08-22T15:48:08.214Z,29.72
2018-08-22T15:51:13.582Z,29.95
2018-08-22T15:54:18.949Z,29.94
2018-08-22T15:57:24.309Z,30.40
2018-08-22T16:00:37.423Z,30.67
2018-08-22T16:03:42.814Z,29.80
2018-08-22T16:07:21.827Z,30.46
2018-08-22T16:10:27.358Z,31.04
2018-08-22T16:13:33.114Z,29.79
2018-08-22T16:16:38.485Z,31.28
2018-08-22T16:19:43.842Z,30.79
2018-08-22T16:22:49.590Z,31.82
2018-08-22T16:25:55.627Z,31.33
2018-08-22T16:29:02.969Z,33.13
2018-08-22T16:32:08.374Z,32.42
2018-08-22T16:35:13.747Z,31.53
2018-08-22T16:38:19.469Z,32.40
2018-08-22T16:41:25.646Z,33.24
2018-08-22T16:44:31.018Z,34.31
2018-08-22T16:47:37.427Z,32.36
2018-08-22T16:50:42.921Z,32.84
2018-08-22T16:54:01.166Z,33.32
2018-08-22T16:57:06.542Z,33.85
2018-08-22T17:00:11.946Z,36.72
2018-08-22T17:03:17.289Z,36.25
2018-08-22T17:06:22.671Z,36.88
2018-08-22T17:09:30.167Z,36.26
2018-08-22T17:12:44.177Z,37.21
2018-08-22T17:15:49.537Z,38.83
2018-08-22T17:18:54.990Z,39.98
2018-08-22T17:22:00.367Z,39.08
2018-08-22T17:25:07.250Z,38.89
2018-08-22T17:28:12.723Z,39.67
2018-08-22T17:31:18.917Z,40.31
2018-08-22T17:34:24.323Z,40.82
2018-08-22T17:37:29.678Z,40.42
2018-08-22T17:40:35.163Z,41.96
2018-08-22T17:44:01.150Z,40.82
2018-08-22T17:47:06.542Z,41.93
2018-08-22T17:50:11.983Z,42.61
2018-08-22T17:53:17.338Z,42.56
2018-08-22T17:56:24.698Z,43.20
2018-08-22T17:59:30.094Z,43.61
2018-08-22T18:02:35.475Z,44.70
2018-08-22T18:05:40.850Z,44.05
2018-08-22T18:08:46.271Z,44.37
2018-08-22T18:11:51.726Z,44.41
2018-08-22T18:15:01.510Z,44.29
2018-08-22T18:18:07.270Z,45.49
2018-08-22T18:21:25.230Z,45.28
2018-08-22T18:24:58.322Z,47.02
2018-08-22T18:28:19.157Z,47.75
2018-08-22T18:31:24.520Z,47.87
2018-08-22T18:34:29.873Z,47.90
2018-08-22T18:37:35.221Z,48.52
2018-08-22T18:40:40.605Z,48.96
2018-08-22T18:43:46.267Z,49.71
2018-08-22T18:46:51.621Z,49.42
2018-08-22T18:49:56.957Z,49.76
2018-08-22T18:53:03.268Z,49.85
2018-08-22T18:56:17.884Z,51.50
2018-08-22T18:59:26.274Z,51.77
2018-08-22T19:02:31.860Z,51.84
2018-08-22T19:05:38.233Z,52.33
2018-08-22T19:08:43.606Z,52.63
2018-08-22T19:11:49.394Z,52.43
2018-08-22T19:14:54.722Z,52.27
2018-08-22T19:18:00.077Z,52.89
2018-08-22T19:21:06.802Z,52.87
2018-08-22T19:24:12.201Z,53.05
2018-08-22T19:27:17.569Z,53.21
2018-08-22T19:30:22.942Z,53.21
2018-08-22T19:33:28.895Z,54.26
2018-08-22T19:36:34.262Z,53.70
2018-08-22T19:40:06.504Z,54.03
2018-08-22T19:43:12.134Z,56.20
2018-08-22T19:46:17.506Z,55.48
2018-08-22T19:49:22.957Z,55.68
2018-08-22T19:52:28.726Z,54.84
2018-08-22T19:55:35.554Z,56.27
2018-08-22T19:58:41.139Z,55.02
2018-08-22T20:01:46.517Z,56.00
2018-08-22T20:04:51.870Z,55.17
2018-08-22T20:07:57.237Z,56.14
2018-08-22T20:11:02.634Z,56.37
2018-08-22T20:14:08.010Z,56.25
2018-08-22T20:17:17.430Z,56.36
2018-08-22T20:20:23.005Z,56.06
2018-08-22T20:23:28.435Z,56.33
2018-08-22T20:26:34.490Z,56.77
2018-08-22T20:29:39.944Z,56.68
2018-08-22T20:32:55.618Z,57.38
2018-08-22T20:36:00.979Z,58.53
2018-08-22T20:39:10.610Z,58.04
2018-08-22T20:42:15.985Z,57.78
2018-08-22T20:45:26.770Z,57.88
2018-08-22T20:48:32.134Z,58.83
2018-08-22T20:51:37.498Z,58.42
2018-08-22T20:54:42.886Z,58.11
2018-08-22T20:57:48.245Z,58.11
2018-08-22T21:00:53.662Z,58.56
2018-08-22T21:03:59.038Z,59.54
2018-08-22T21:07:04.821Z,59.88
2018-08-22T21:10:10.230Z,59.38
2018-08-22T21:13:20.598Z,60.78
2018-08-22T21:16:25.936Z,60.29
2018-08-22T21:19:31.373Z,60.77
2018-08-22T21:22:36.718Z,60.46
2018-08-22T21:25:43.891Z,60.57
2018-08-22T21:28:49.430Z,60.09
2018-08-22T21:31:54.767Z,60.55
2018-08-22T21:35:00.130Z,60.92
2018-08-22T21:38:09.533Z,61.82
2018-08-22T21:41:14.914Z,61.65
2018-08-22T21:44:21.522Z,62.36
2018-08-22T21:47:26.945Z,61.91
2018-08-22T21:50:32.402Z,62.49
2018-08-22T21:53:37.768Z,61.66
2018-08-22T21:56:43.167Z,61.93
2018-08-22T22:00:10.374Z,61.07
2018-08-22T22:03:19.834Z,61.41
